Terminal Aerodrome Forecast
Issued by NWS

Home | Current Version | Previous Version | Text Only | Print | Product List | Glossary On
Versions: 1 2 3 4 5 6 7 8 9 10 11 12 13 14 15 16 17 18 19 20
000
FTUS46 KEKA 230228 AAA
TAFCEC
TAF AMD
KCEC 230228Z 2302/2324 15007KT P6SM SCT025
     FM230600 16010KT 5SM -RA BR SCT015 BKN025
     FM231200 16010KT 2SM -RA BR BKN006 OVC012
     FM232000 16012KT P6SM -DZ OVC010=

USA.gov is the U.S. government's official web portal to all federal, state and local government web resources and services.